createdAt,value
2016-09-18T00:00:40.449Z,62.13
2016-09-18T00:01:40.475Z,62.32
2016-09-18T00:02:40.498Z,62.42
2016-09-18T00:03:40.522Z,62.61
2016-09-18T00:04:40.543Z,62.81
2016-09-18T00:05:40.566Z,62.52
2016-09-18T00:06:40.592Z,62.23
2016-09-18T00:07:40.626Z,62.32
2016-09-18T00:08:40.639Z,62.61
2016-09-18T00:09:40.659Z,62.13
2016-09-18T00:10:40.685Z,62.32
2016-09-18T00:11:40.706Z,62.42
2016-09-18T00:12:40.729Z,62.42
2016-09-18T00:13:40.752Z,62.52
2016-09-18T00:14:40.783Z,62.42
2016-09-18T00:15:40.797Z,62.52
2016-09-18T00:16:40.824Z,62.52
2016-09-18T00:17:40.848Z,62.61
2016-09-18T00:18:40.870Z,62.61
2016-09-18T00:19:40.891Z,62.42
2016-09-18T00:20:40.914Z,62.61
2016-09-18T00:21:40.932Z,62.13
2016-09-18T00:22:40.961Z,62.32
2016-09-18T00:23:40.985Z,62.42
2016-09-18T00:24:41.008Z,62.52
2016-09-18T00:25:41.030Z,62.52
2016-09-18T00:26:41.051Z,62.42
2016-09-18T00:27:41.074Z,62.42
2016-09-18T00:28:41.411Z,62.32
2016-09-18T00:29:41.433Z,62.42
2016-09-18T00:30:41.143Z,62.13
2016-09-18T00:31:41.169Z,62.42
2016-09-18T00:32:41.192Z,62.52
2016-09-18T00:33:41.214Z,62.71
2016-09-18T00:34:41.237Z,62.32
2016-09-18T00:35:41.259Z,62.32
2016-09-18T00:36:41.468Z,62.42
2016-09-18T00:37:41.481Z,62.52
2016-09-18T00:38:41.491Z,62.42
2016-09-18T00:39:41.499Z,62.42
2016-09-18T00:40:41.513Z,62.61
2016-09-18T00:41:41.506Z,62.52
2016-09-18T00:42:41.515Z,62.42
2016-09-18T00:43:41.486Z,62.52
2016-09-18T00:44:41.495Z,62.71
2016-09-18T00:45:41.492Z,62.32
2016-09-18T00:46:41.513Z,62.42
2016-09-18T00:47:41.535Z,62.32
2016-09-18T00:48:41.561Z,62.13
2016-09-18T00:49:41.584Z,62.52
2016-09-18T00:50:42.030Z,62.52
2016-09-18T00:51:41.633Z,62.52
2016-09-18T00:52:41.651Z,62.71
2016-09-18T00:53:41.675Z,62.71
2016-09-18T00:54:41.698Z,62.61
2016-09-18T00:55:41.723Z,62.42
2016-09-18T00:56:41.744Z,62.42
2016-09-18T00:57:41.768Z,62.13
2016-09-18T00:58:41.789Z,62.13
2016-09-18T00:59:41.814Z,62.61
2016-09-18T01:00:41.849Z,62.42
2016-09-18T01:01:41.858Z,62.9
2016-09-18T01:02:41.995Z,63.19
2016-09-18T01:03:42.025Z,62.71
2016-09-18T01:04:42.024Z,62.42
2016-09-18T01:05:42.057Z,62.52
2016-09-18T01:06:42.071Z,62.32
2016-09-18T01:07:42.075Z,62.04
2016-09-18T01:08:42.082Z,62.61
2016-09-18T01:09:42.083Z,62.13
2016-09-18T01:10:42.094Z,62.9
2016-09-18T01:11:42.099Z,63.19
2016-09-18T01:12:42.168Z,62.71
2016-09-18T01:13:42.167Z,62.81
2016-09-18T01:14:42.177Z,63.09
2016-09-18T01:15:42.185Z,63.09
2016-09-18T01:16:42.204Z,62.81
2016-09-18T01:17:42.320Z,62.99
2016-09-18T01:18:42.342Z,63.38
2016-09-18T01:19:42.351Z,63.19
2016-09-18T01:20:42.360Z,62.99
2016-09-18T01:21:42.385Z,63.19
2016-09-18T01:22:42.378Z,63.09
2016-09-18T01:23:42.376Z,62.9
2016-09-18T01:24:42.389Z,63.19
2016-09-18T01:25:42.414Z,63.09
2016-09-18T01:26:42.436Z,63.19
2016-09-18T01:27:42.461Z,63.19
2016-09-18T01:28:42.503Z,62.99
2016-09-18T01:29:42.510Z,62.9
2016-09-18T01:30:42.528Z,62.99
2016-09-18T01:31:42.550Z,62.42
2016-09-18T01:32:42.572Z,63.28
2016-09-18T01:33:42.598Z,63.19
2016-09-18T01:34:42.619Z,63.09
2016-09-18T01:35:42.642Z,62.99
2016-09-18T01:36:42.666Z,62.99
2016-09-18T01:37:42.688Z,63.09
2016-09-18T01:38:42.711Z,63.09
2016-09-18T01:39:42.733Z,62.9
2016-09-18T01:40:42.759Z,62.9
2016-09-18T01:41:42.778Z,62.9
2016-09-18T01:42:42.804Z,62.99
2016-09-18T01:43:42.826Z,63.09
2016-09-18T01:44:42.849Z,62.99
2016-09-18T01:45:42.871Z,63.28
2016-09-18T01:46:42.897Z,63.19
2016-09-18T01:47:42.920Z,63.38
2016-09-18T01:48:42.940Z,62.81
2016-09-18T01:49:42.964Z,63.28
2016-09-18T01:50:42.988Z,62.99
2016-09-18T01:51:43.029Z,62.99
2016-09-18T01:52:43.035Z,62.52
2016-09-18T01:53:43.058Z,63.28
2016-09-18T01:54:43.081Z,62.81
2016-09-18T01:55:43.102Z,62.99
2016-09-18T01:56:43.125Z,63.19
2016-09-18T01:57:43.150Z,62.99
2016-09-18T01:58:43.171Z,63.28
2016-09-18T01:59:43.193Z,62.99
2016-09-18T02:00:43.215Z,62.99
2016-09-18T02:01:43.240Z,62.99
2016-09-18T02:02:43.262Z,62.99
2016-09-18T02:03:43.285Z,62.9
2016-09-18T02:04:43.309Z,62.9
2016-09-18T02:05:43.332Z,62.9
2016-09-18T02:06:43.355Z,62.99
2016-09-18T02:07:43.376Z,62.9
2016-09-18T02:08:43.402Z,62.9
2016-09-18T02:09:43.425Z,62.96
2016-09-18T02:10:43.452Z,62.9
2016-09-18T02:11:43.471Z,62.9
2016-09-18T02:12:43.494Z,62.87
2016-09-18T02:13:43.517Z,63.09
2016-09-18T02:14:43.541Z,62.99
2016-09-18T02:15:43.561Z,62.96
2016-09-18T02:16:43.585Z,62.99
2016-09-18T02:17:43.609Z,62.99
2016-09-18T02:18:43.632Z,63.28
2016-09-18T02:19:43.653Z,62.81
2016-09-18T02:20:43.678Z,63.09
2016-09-18T02:21:43.699Z,63.19
2016-09-18T02:22:43.723Z,63.19
2016-09-18T02:23:43.746Z,63.09
2016-09-18T02:24:43.769Z,63.19
2016-09-18T02:25:43.792Z,63.09
2016-09-18T02:26:43.812Z,62.81
2016-09-18T02:27:43.848Z,62.9
2016-09-18T02:28:43.861Z,63.09
2016-09-18T02:29:43.996Z,63.19
2016-09-18T02:30:44.001Z,63.09
2016-09-18T02:31:44.018Z,63.09
2016-09-18T02:32:44.184Z,63.09
2016-09-18T02:33:44.179Z,62.42
2016-09-18T02:34:44.196Z,63.16
2016-09-18T02:35:44.202Z,63.35
2016-09-18T02:36:44.213Z,62.96
2016-09-18T02:37:44.222Z,63.25
2016-09-18T02:38:44.220Z,62.87
2016-09-18T02:39:44.229Z,62.99
2016-09-18T02:40:44.238Z,63.06
2016-09-18T02:41:44.287Z,63.16
2016-09-18T02:42:44.286Z,62.96
2016-09-18T02:43:44.295Z,63.06
2016-09-18T02:44:44.304Z,63.09
2016-09-18T02:45:44.665Z,62.96
2016-09-18T02:46:44.361Z,62.96
2016-09-18T02:47:44.385Z,62.96
2016-09-18T02:48:44.391Z,62.96
2016-09-18T02:49:44.402Z,62.9
2016-09-18T02:50:44.410Z,63.09
2016-09-18T02:51:44.418Z,63.06
2016-09-18T02:52:44.527Z,63.16
2016-09-18T02:53:44.434Z,62.87
2016-09-18T02:54:44.457Z,63.16
2016-09-18T02:55:44.478Z,63.16
2016-09-18T02:56:44.502Z,62.87
2016-09-18T02:57:44.525Z,63.06
2016-09-18T02:58:44.547Z,63.16
2016-09-18T02:59:44.578Z,62.96
2016-09-18T03:00:44.594Z,63.06
2016-09-18T03:01:44.615Z,63.06
2016-09-18T03:02:44.641Z,63.06
2016-09-18T03:03:44.662Z,62.96
2016-09-18T03:04:44.685Z,62.68
2016-09-18T03:05:44.707Z,62.96
2016-09-18T03:06:44.732Z,62.96
2016-09-18T03:07:44.754Z,62.87
2016-09-18T03:08:44.777Z,62.87
2016-09-18T03:09:44.801Z,62.87
2016-09-18T03:10:44.822Z,63.25
2016-09-18T03:11:44.845Z,62.58
2016-09-18T03:12:44.874Z,63.25
2016-09-18T03:13:44.894Z,62.29
2016-09-18T03:14:44.915Z,62.68
2016-09-18T03:15:44.937Z,62.87
2016-09-18T03:16:44.962Z,62.29
2016-09-18T03:17:44.980Z,62.39
2016-09-18T03:18:45.004Z,62.58
2016-09-18T03:19:45.028Z,62.87
2016-09-18T03:20:45.050Z,62.48
2016-09-18T03:21:45.074Z,62.58
2016-09-18T03:22:45.096Z,62.87
2016-09-18T03:23:45.431Z,62.96
2016-09-18T03:24:45.142Z,62.29
2016-09-18T03:25:45.165Z,62.77
2016-09-18T03:26:45.188Z,63.35
2016-09-18T03:27:45.212Z,62.29
2016-09-18T03:28:45.235Z,62.96
2016-09-18T03:29:45.257Z,63.35
2016-09-18T03:30:45.281Z,62.77
2016-09-18T03:31:45.614Z,62.48
2016-09-18T03:32:45.325Z,62.39
2016-09-18T03:33:45.455Z,62.48
2016-09-18T03:34:45.370Z,62.48
2016-09-18T03:35:45.393Z,63.35
2016-09-18T03:36:45.416Z,63.35
2016-09-18T03:37:45.439Z,62.68
2016-09-18T03:38:45.459Z,62.87
2016-09-18T03:39:45.485Z,62.48
2016-09-18T03:40:45.506Z,62.39
2016-09-18T03:41:45.531Z,62.68
2016-09-18T03:42:45.871Z,62.48
2016-09-18T03:43:45.573Z,62.87
2016-09-18T03:44:45.600Z,62.68
2016-09-18T03:45:45.620Z,62.77
2016-09-18T03:46:45.647Z,62.48
2016-09-18T03:47:45.669Z,62.68
2016-09-18T03:48:45.689Z,62.48
2016-09-18T03:49:45.711Z,62.87
2016-09-18T03:50:45.732Z,62.45
2016-09-18T03:51:45.757Z,63.16
2016-09-18T03:52:45.828Z,63.35
2016-09-18T03:53:45.804Z,62.93
2016-09-18T03:54:45.825Z,62.96
2016-09-18T03:55:45.849Z,62.84
2016-09-18T03:56:45.871Z,63.16
2016-09-18T03:57:45.907Z,63.03
2016-09-18T03:58:45.918Z,62.96
2016-09-18T03:59:45.941Z,63.03
2016-09-18T04:00:45.963Z,63.03
2016-09-18T04:01:45.985Z,63.03
2016-09-18T04:02:46.008Z,63.03
2016-09-18T04:03:46.030Z,63.03
2016-09-18T04:04:46.051Z,63.22
2016-09-18T04:05:46.076Z,63.03
2016-09-18T04:06:46.097Z,63.22
2016-09-18T04:07:46.125Z,63.35
2016-09-18T04:08:46.145Z,62.74
2016-09-18T04:09:46.167Z,63.22
2016-09-18T04:10:46.190Z,62.74
2016-09-18T04:11:46.211Z,62.84
2016-09-18T04:12:46.236Z,63.03
2016-09-18T04:13:46.258Z,63.03
2016-09-18T04:14:46.279Z,62.93
2016-09-18T04:15:46.301Z,63.03
2016-09-18T04:16:46.326Z,62.93
2016-09-18T04:17:46.348Z,63.03
2016-09-18T04:18:46.369Z,63.03
2016-09-18T04:19:46.391Z,62.84
2016-09-18T04:20:46.416Z,63.03
2016-09-18T04:21:46.441Z,62.84
2016-09-18T04:22:46.461Z,63.12
2016-09-18T04:23:46.485Z,63.03
2016-09-18T04:24:46.509Z,62.93
2016-09-18T04:25:46.530Z,63.03
2016-09-18T04:26:46.572Z,62.93
2016-09-18T04:27:46.575Z,62.93
2016-09-18T04:28:46.598Z,62.74
2016-09-18T04:29:46.620Z,62.84
2016-09-18T04:30:46.642Z,62.93
2016-09-18T04:31:46.666Z,62.93
2016-09-18T04:32:46.687Z,62.84
2016-09-18T04:33:46.710Z,62.84
2016-09-18T04:34:46.732Z,62.74
2016-09-18T04:35:46.756Z,62.55
2016-09-18T04:36:46.775Z,62.93
2016-09-18T04:37:46.799Z,62.93
2016-09-18T04:38:46.823Z,63.12
2016-09-18T04:39:46.846Z,62.84
2016-09-18T04:40:46.868Z,63.03
2016-09-18T04:41:46.891Z,62.84
2016-09-18T04:42:46.913Z,62.93
2016-09-18T04:43:46.937Z,62.74
2016-09-18T04:44:46.957Z,62.93
2016-09-18T04:45:46.983Z,62.93
2016-09-18T04:46:47.002Z,63.03
2016-09-18T04:47:47.027Z,63.03
2016-09-18T04:48:47.047Z,63.03
2016-09-18T04:49:47.076Z,62.93
2016-09-18T04:50:47.094Z,62.93
2016-09-18T04:51:47.120Z,62.93
2016-09-18T04:52:47.195Z,63.12
2016-09-18T04:53:47.161Z,62.84
2016-09-18T04:54:47.183Z,63
2016-09-18T04:55:47.205Z,62.93
2016-09-18T04:56:47.232Z,62.9
2016-09-18T04:57:47.249Z,63
2016-09-18T04:58:47.271Z,63.09
2016-09-18T04:59:47.294Z,63.09
2016-09-18T05:00:47.316Z,62.81
2016-09-18T05:01:47.346Z,62.9
2016-09-18T05:02:47.361Z,63.09
2016-09-18T05:03:47.385Z,63.09
2016-09-18T05:04:47.407Z,63
2016-09-18T05:05:47.440Z,62.81
2016-09-18T05:06:47.453Z,62.9
2016-09-18T05:07:47.472Z,63.19
2016-09-18T05:08:47.494Z,63
2016-09-18T05:09:47.519Z,62.9
2016-09-18T05:10:47.549Z,62.81
2016-09-18T05:11:47.563Z,62.71
2016-09-18T05:12:47.586Z,63.09
2016-09-18T05:13:47.607Z,62.9
2016-09-18T05:14:47.631Z,63.19
2016-09-18T05:15:47.658Z,63.09
2016-09-18T05:16:47.677Z,63
2016-09-18T05:17:47.699Z,63
2016-09-18T05:18:47.719Z,63.09
2016-09-18T05:19:47.743Z,63.09
2016-09-18T05:20:47.763Z,63.19
2016-09-18T05:21:47.789Z,63
2016-09-18T05:22:47.808Z,63.09
2016-09-18T05:23:47.831Z,63
2016-09-18T05:24:47.852Z,63
2016-09-18T05:25:47.876Z,63.09
2016-09-18T05:26:47.899Z,62.9
2016-09-18T05:27:47.921Z,63.29
2016-09-18T05:28:47.944Z,62.81
2016-09-18T05:29:47.975Z,63
2016-09-18T05:30:47.986Z,63
2016-09-18T05:31:48.010Z,62.81
2016-09-18T05:32:48.033Z,62.81
2016-09-18T05:33:48.056Z,63.29
2016-09-18T05:34:48.080Z,63
2016-09-18T05:35:48.097Z,63.09
2016-09-18T05:36:48.123Z,62.9
2016-09-18T05:37:48.142Z,62.81
2016-09-18T05:38:48.167Z,63
2016-09-18T05:39:48.192Z,62.9
2016-09-18T05:40:48.211Z,63.09
2016-09-18T05:41:48.236Z,63.09
2016-09-18T05:42:48.255Z,62.9
2016-09-18T05:43:48.280Z,63.19
2016-09-18T05:44:48.299Z,63
2016-09-18T05:45:48.338Z,62.81
2016-09-18T05:46:48.347Z,62.42
2016-09-18T05:47:48.368Z,62.9
2016-09-18T05:48:48.395Z,62.71
2016-09-18T05:49:48.416Z,62.9
2016-09-18T05:50:48.439Z,63.19
2016-09-18T05:51:48.767Z,63.09
2016-09-18T05:52:48.480Z,62.9
2016-09-18T05:53:48.504Z,62.71
2016-09-18T05:54:48.523Z,63
2016-09-18T05:55:48.557Z,63
2016-09-18T05:56:48.567Z,62.71
2016-09-18T05:57:48.589Z,62.9
2016-09-18T05:58:48.610Z,63
2016-09-18T05:59:48.750Z,62.81
2016-09-18T06:00:48.657Z,63
2016-09-18T06:01:48.678Z,63
2016-09-18T06:02:48.709Z,63.09
2016-09-18T06:03:48.732Z,63
2016-09-18T06:04:48.744Z,62.9
2016-09-18T06:05:48.767Z,63
2016-09-18T06:06:48.789Z,63
2016-09-18T06:07:48.817Z,62.9
2016-09-18T06:08:48.832Z,63.19
2016-09-18T06:09:48.853Z,62.71
2016-09-18T06:10:48.880Z,63.29
2016-09-18T06:11:48.899Z,62.33
2016-09-18T06:12:48.921Z,63
2016-09-18T06:13:48.948Z,63.12
2016-09-18T06:14:48.965Z,62.33
2016-09-18T06:15:48.988Z,62.13
2016-09-18T06:16:49.011Z,62.42
2016-09-18T06:17:49.031Z,62.42
2016-09-18T06:18:49.055Z,62.33
2016-09-18T06:19:49.076Z,62.36
2016-09-18T06:20:49.099Z,62.36
2016-09-18T06:21:49.122Z,62.52
2016-09-18T06:22:49.226Z,62.55
2016-09-18T06:23:49.250Z,62.65
2016-09-18T06:24:49.189Z,62.26
2016-09-18T06:25:49.324Z,61.98
2016-09-18T06:26:49.233Z,62.26
2016-09-18T06:27:49.256Z,62.36
2016-09-18T06:28:49.278Z,61.88
2016-09-18T06:29:49.306Z,61.98
2016-09-18T06:30:49.322Z,62.16
2016-09-18T06:31:49.344Z,62.26
2016-09-18T06:32:49.367Z,61.88
2016-09-18T06:33:49.388Z,62.16
2016-09-18T06:34:49.416Z,62.07
2016-09-18T06:35:49.430Z,62.07
2016-09-18T06:36:49.457Z,62.45
2016-09-18T06:37:49.481Z,62.16
2016-09-18T06:38:49.505Z,62.36
2016-09-18T06:39:49.521Z,61.59
2016-09-18T06:40:49.541Z,61.78
2016-09-18T06:41:49.565Z,61.78
2016-09-18T06:42:49.586Z,61.69
2016-09-18T06:43:49.614Z,61.88
2016-09-18T06:44:49.632Z,61.88
2016-09-18T06:45:49.672Z,61.78
2016-09-18T06:46:49.675Z,62.07
2016-09-18T06:47:49.701Z,62.07
2016-09-18T06:48:49.720Z,61.78
2016-09-18T06:49:49.771Z,61.88
2016-09-18T06:50:49.763Z,62.36
2016-09-18T06:51:49.790Z,62.26
2016-09-18T06:52:49.811Z,62.07
2016-09-18T06:53:49.835Z,62.26
2016-09-18T06:54:49.855Z,61.88
2016-09-18T06:55:49.877Z,61.69
2016-09-18T06:56:49.902Z,61.91
2016-09-18T06:57:49.922Z,61.69
2016-09-18T06:58:50.048Z,61.72
2016-09-18T06:59:49.965Z,61.49
2016-09-18T07:00:49.989Z,61.21
2016-09-18T07:01:50.009Z,61.81
2016-09-18T07:02:50.036Z,61.43
2016-09-18T07:03:50.057Z,61.24
2016-09-18T07:04:50.078Z,61.05
2016-09-18T07:05:50.102Z,61.14
2016-09-18T07:06:50.124Z,61.14
2016-09-18T07:07:50.147Z,61.24
2016-09-18T07:08:50.167Z,61.81
2016-09-18T07:09:50.192Z,61.24
2016-09-18T07:10:50.213Z,61.24
2016-09-18T07:11:50.319Z,61.24
2016-09-18T07:12:50.262Z,61.05
2016-09-18T07:13:50.286Z,61.43
2016-09-18T07:14:50.299Z,61.46
2016-09-18T07:15:50.325Z,60.95
2016-09-18T07:16:50.350Z,60.75
2016-09-18T07:17:50.369Z,60.4
2016-09-18T07:18:50.392Z,60.98
2016-09-18T07:19:50.415Z,60.6
2016-09-18T07:20:50.676Z,60.69
2016-09-18T07:21:50.459Z,61.08
2016-09-18T07:22:50.485Z,60.31
2016-09-18T07:23:50.509Z,60.5
2016-09-18T07:24:50.525Z,60.5
2016-09-18T07:25:50.547Z,60.31
2016-09-18T07:26:50.573Z,60.6
2016-09-18T07:27:50.592Z,60.6
2016-09-18T07:28:50.617Z,60.4
2016-09-18T07:29:50.731Z,60.6
2016-09-18T07:30:50.662Z,60.5
2016-09-18T07:31:50.685Z,60.43
2016-09-18T07:32:50.748Z,60.69
2016-09-18T07:33:50.730Z,60.53
2016-09-18T07:34:50.869Z,60.14
2016-09-18T07:35:50.778Z,60.24
2016-09-18T07:36:50.794Z,60.05
2016-09-18T07:37:50.818Z,59.95
2016-09-18T07:38:50.949Z,60.05
2016-09-18T07:39:50.950Z,59.76
2016-09-18T07:40:50.916Z,59.66
2016-09-18T07:41:50.908Z,59.19
2016-09-18T07:42:50.933Z,59.28
2016-09-18T07:43:50.991Z,59.38
2016-09-18T07:44:50.976Z,59.47
2016-09-18T07:45:51.000Z,59.38
2016-09-18T07:46:51.128Z,59.19
2016-09-18T07:47:51.044Z,59.31
2016-09-18T07:48:51.109Z,59.12
2016-09-18T07:49:51.094Z,58.92
2016-09-18T07:50:51.229Z,59.12
2016-09-18T07:51:51.135Z,59.02
2016-09-18T07:52:51.159Z,59.22
2016-09-18T07:53:51.181Z,59.12
2016-09-18T07:54:51.204Z,59.22
2016-09-18T07:55:51.228Z,58.83
2016-09-18T07:56:51.248Z,59.41
2016-09-18T07:57:51.270Z,58.45
2016-09-18T07:58:51.293Z,58.92
2016-09-18T07:59:51.314Z,58.83
2016-09-18T08:00:51.339Z,58.37
2016-09-18T08:01:51.363Z,58.57
2016-09-18T08:02:51.391Z,58.09
2016-09-18T08:03:51.407Z,58.09
2016-09-18T08:04:51.429Z,58.18
2016-09-18T08:05:51.452Z,58.28
2016-09-18T08:06:51.477Z,58.18
2016-09-18T08:07:51.500Z,58.37
2016-09-18T08:08:51.521Z,57.42
2016-09-18T08:09:51.545Z,57.8
2016-09-18T08:10:51.566Z,57.64
2016-09-18T08:11:51.592Z,57.73
2016-09-18T08:12:51.613Z,57.73
2016-09-18T08:13:51.637Z,57.35
2016-09-18T08:14:51.660Z,57.54
2016-09-18T08:15:51.685Z,57.83
2016-09-18T08:16:51.706Z,56.87
2016-09-18T08:17:51.728Z,56.96
2016-09-18T08:18:51.752Z,56.96
2016-09-18T08:19:51.773Z,56.67
2016-09-18T08:20:51.800Z,56.77
2016-09-18T08:21:51.819Z,57.15
2016-09-18T08:22:51.845Z,56.7
2016-09-18T08:23:51.866Z,56.32
2016-09-18T08:24:51.901Z,55.83
2016-09-18T08:25:51.915Z,56.32
2016-09-18T08:26:51.939Z,55.83
2016-09-18T08:27:51.959Z,56.12
2016-09-18T08:28:51.984Z,55.74
2016-09-18T08:29:52.007Z,55.74
2016-09-18T08:30:52.028Z,55.83
2016-09-18T08:31:52.051Z,55.74
2016-09-18T08:32:52.076Z,55.48
2016-09-18T08:33:52.099Z,55.38
2016-09-18T08:34:52.122Z,55.19
2016-09-18T08:35:52.147Z,54.71
2016-09-18T08:36:52.170Z,55
2016-09-18T08:37:52.195Z,55.19
2016-09-18T08:38:52.216Z,55.19
2016-09-18T08:39:52.242Z,55
2016-09-18T08:40:52.264Z,54.8
2016-09-18T08:41:52.287Z,54.22
2016-09-18T08:42:52.312Z,54.42
2016-09-18T08:43:52.337Z,54.25
2016-09-18T08:44:52.372Z,54.06
2016-09-18T08:45:52.382Z,53.96
2016-09-18T08:46:52.407Z,53.77
2016-09-18T08:47:52.430Z,53.67
2016-09-18T08:48:52.453Z,53.09
2016-09-18T08:49:52.478Z,53.77
2016-09-18T08:50:52.501Z,53.67
2016-09-18T08:51:52.543Z,53.7
2016-09-18T08:52:52.861Z,53.51
2016-09-18T08:53:52.571Z,53.41
2016-09-18T08:54:52.595Z,52.93
2016-09-18T08:55:52.618Z,53.03
2016-09-18T08:56:52.639Z,52.95
2016-09-18T08:57:52.667Z,52.67
2016-09-18T08:58:52.696Z,52.47
2016-09-18T08:59:52.713Z,51.99
2016-09-18T09:00:52.739Z,51.61
2016-09-18T09:01:52.763Z,52.01
2016-09-18T09:02:52.787Z,52.09
2016-09-18T09:03:52.808Z,51.61
2016-09-18T09:04:52.839Z,51.53
2016-09-18T09:05:52.859Z,51.44
2016-09-18T09:06:52.881Z,51.15
2016-09-18T09:07:52.917Z,50.76
2016-09-18T09:08:52.931Z,50.76
2016-09-18T09:09:52.955Z,50.86
2016-09-18T09:10:52.978Z,50.57
2016-09-18T09:11:53.116Z,50.28
2016-09-18T09:12:53.036Z,50.38
2016-09-18T09:13:53.053Z,50.18
2016-09-18T09:14:53.075Z,50.96
2016-09-18T09:15:53.100Z,50.59
2016-09-18T09:16:53.130Z,49.73
2016-09-18T09:17:53.150Z,49.51
2016-09-18T09:18:53.187Z,49.73
2016-09-18T09:19:53.235Z,49.63
2016-09-18T09:20:53.223Z,49.82
2016-09-18T09:21:53.248Z,49.63
2016-09-18T09:22:53.271Z,49.63
2016-09-18T09:23:53.296Z,49.53
2016-09-18T09:24:53.322Z,49.73
2016-09-18T09:25:53.346Z,49.44
2016-09-18T09:26:53.370Z,49.34
2016-09-18T09:27:53.397Z,49.34
2016-09-18T09:28:53.423Z,49.53
2016-09-18T09:29:53.567Z,49.44
2016-09-18T09:30:53.467Z,49.44
2016-09-18T09:31:53.496Z,49.15
2016-09-18T09:32:53.519Z,48.66
2016-09-18T09:33:53.547Z,49.15
2016-09-18T09:34:53.569Z,48.76
2016-09-18T09:35:53.622Z,48.37
2016-09-18T09:36:53.747Z,48.66
2016-09-18T09:37:53.648Z,48.57
2016-09-18T09:38:53.671Z,48.69
2016-09-18T09:39:53.698Z,48.79
2016-09-18T09:40:53.719Z,48.49
2016-09-18T09:41:53.745Z,48.49
2016-09-18T09:42:53.786Z,48.39
2016-09-18T09:43:53.795Z,48.3
2016-09-18T09:44:53.819Z,48.01
2016-09-18T09:45:53.845Z,47.43
2016-09-18T09:46:53.870Z,47.63
2016-09-18T09:47:53.895Z,48.11
2016-09-18T09:48:53.921Z,47.53
2016-09-18T09:49:53.945Z,47.72
2016-09-18T09:50:53.977Z,47.55
2016-09-18T09:51:53.996Z,47.55
2016-09-18T09:52:54.069Z,47.65
2016-09-18T09:53:54.046Z,47.55
2016-09-18T09:54:54.069Z,47.26
2016-09-18T09:55:54.097Z,47.07
2016-09-18T09:56:54.243Z,47.07
2016-09-18T09:57:54.149Z,47.26
2016-09-18T09:58:54.171Z,46.78
2016-09-18T09:59:54.198Z,46.88
2016-09-18T10:00:54.224Z,46.49
2016-09-18T10:01:54.568Z,46.68
2016-09-18T10:02:54.275Z,46.78
2016-09-18T10:03:54.299Z,46.49
2016-09-18T10:04:54.327Z,46.39
2016-09-18T10:05:54.353Z,46.68
2016-09-18T10:06:54.377Z,46.49
2016-09-18T10:07:54.403Z,46.51
2016-09-18T10:08:54.434Z,46.51
2016-09-18T10:09:54.454Z,46.22
2016-09-18T10:10:54.483Z,46.32
2016-09-18T10:11:54.504Z,46.03
2016-09-18T10:12:54.533Z,45.83
2016-09-18T10:13:54.558Z,45.74
2016-09-18T10:14:54.583Z,45.83
2016-09-18T10:15:54.844Z,45.83
2016-09-18T10:16:54.747Z,46.22
2016-09-18T10:17:54.797Z,46.12
2016-09-18T10:18:54.688Z,45.83
2016-09-18T10:19:54.805Z,45.64
2016-09-18T10:20:54.738Z,45.54
2016-09-18T10:21:54.762Z,45.54
2016-09-18T10:22:54.790Z,45.35
2016-09-18T10:23:54.815Z,45.45
2016-09-18T10:24:54.840Z,45.35
2016-09-18T10:25:54.866Z,45.35
2016-09-18T10:26:55.002Z,45.54
2016-09-18T10:27:55.130Z,45.45
2016-09-18T10:28:54.943Z,45.35
2016-09-18T10:29:54.971Z,45.66
2016-09-18T10:30:54.997Z,45.47
2016-09-18T10:31:55.021Z,45.57
2016-09-18T10:32:55.049Z,45.28
2016-09-18T10:33:55.073Z,45.18
2016-09-18T10:34:55.100Z,44.98
2016-09-18T10:35:55.125Z,44.79
2016-09-18T10:36:55.153Z,44.89
2016-09-18T10:37:55.179Z,44.98
2016-09-18T10:38:55.204Z,44.6
2016-09-18T10:39:55.231Z,44.6
2016-09-18T10:40:55.256Z,44.4
2016-09-18T10:41:55.282Z,44.4
2016-09-18T10:42:55.308Z,43.92
2016-09-18T10:43:55.333Z,44.21
2016-09-18T10:44:55.376Z,43.92
2016-09-18T10:45:55.385Z,44.02
2016-09-18T10:46:55.416Z,44.04
2016-09-18T10:47:55.439Z,43.95
2016-09-18T10:48:55.467Z,44.04
2016-09-18T10:49:55.560Z,44.04
2016-09-18T10:50:55.566Z,44.13
2016-09-18T10:51:55.542Z,44.23
2016-09-18T10:52:55.620Z,44.33
2016-09-18T10:53:55.596Z,43.55
2016-09-18T10:54:55.623Z,43.75
2016-09-18T10:55:55.648Z,44.04
2016-09-18T10:56:55.675Z,44.13
2016-09-18T10:57:55.703Z,43.68
2016-09-18T10:58:55.733Z,43.17
2016-09-18T10:59:55.757Z,42.9
2016-09-18T11:00:55.778Z,43
2016-09-18T11:01:55.807Z,43
2016-09-18T11:02:55.835Z,43.19
2016-09-18T11:03:55.890Z,43.29
2016-09-18T11:04:55.886Z,43.29
2016-09-18T11:05:55.913Z,43.07
2016-09-18T11:06:55.940Z,42.9
2016-09-18T11:07:55.966Z,42.8
2016-09-18T11:08:55.998Z,42.97
2016-09-18T11:09:56.018Z,42.88
2016-09-18T11:10:56.046Z,42.8
2016-09-18T11:11:56.071Z,42.78
2016-09-18T11:12:56.109Z,42.68
2016-09-18T11:13:56.126Z,42.78
2016-09-18T11:14:56.156Z,42.78
2016-09-18T11:15:56.180Z,42.88
2016-09-18T11:16:56.206Z,42.59
2016-09-18T11:17:56.239Z,42.68
2016-09-18T11:18:56.315Z,42.59
2016-09-18T11:19:56.284Z,42.59
2016-09-18T11:20:56.314Z,42.68
2016-09-18T11:21:56.339Z,42.61
2016-09-18T11:22:56.365Z,42.8
2016-09-18T11:23:56.393Z,42.51
2016-09-18T11:24:56.425Z,42.61
2016-09-18T11:25:56.467Z,42.41
2016-09-18T11:26:56.476Z,42.41
2016-09-18T11:27:56.501Z,42.41
2016-09-18T11:28:56.526Z,42.03
2016-09-18T11:29:56.558Z,41.74
2016-09-18T11:30:56.601Z,41.37
2016-09-18T11:31:56.609Z,41.37
2016-09-18T11:32:56.636Z,41.47
2016-09-18T11:33:56.666Z,41.66
2016-09-18T11:34:56.689Z,41.47
2016-09-18T11:35:56.721Z,41.27
2016-09-18T11:36:56.745Z,41.27
2016-09-18T11:37:56.771Z,41.17
2016-09-18T11:38:56.850Z,41.27
2016-09-18T11:39:56.938Z,41.49
2016-09-18T11:40:56.852Z,41.49
2016-09-18T11:41:56.879Z,41.2
2016-09-18T11:42:56.908Z,41.49
2016-09-18T11:43:57.047Z,41.2
2016-09-18T11:44:56.989Z,40.71
2016-09-18T11:45:56.990Z,40.52
2016-09-18T11:46:57.016Z,40.42
2016-09-18T11:47:57.043Z,40.13
2016-09-18T11:48:57.175Z,40.13
2016-09-18T11:49:57.098Z,40.23
2016-09-18T11:50:57.124Z,40.23
2016-09-18T11:51:57.154Z,40.13
2016-09-18T11:52:57.178Z,39.94
2016-09-18T11:53:57.209Z,40.23
2016-09-18T11:54:57.234Z,40.03
2016-09-18T11:55:57.374Z,40.03
2016-09-18T11:56:57.375Z,40.23
2016-09-18T11:57:57.431Z,39.94
2016-09-18T11:58:57.504Z,39.94
2016-09-18T11:59:57.514Z,40.23
2016-09-18T12:00:57.522Z,39.94
2016-09-18T12:01:57.530Z,39.84
2016-09-18T12:02:57.662Z,39.84
2016-09-18T12:03:57.671Z,39.84
2016-09-18T12:04:57.630Z,39.65
2016-09-18T12:05:57.553Z,39.65
2016-09-18T12:06:57.565Z,39.45
2016-09-18T12:07:57.591Z,39.65
2016-09-18T12:08:57.622Z,39.65
2016-09-18T12:09:57.645Z,39.45
2016-09-18T12:10:57.676Z,39.45
2016-09-18T12:11:57.702Z,39.45
2016-09-18T12:12:57.734Z,39.36
2016-09-18T12:13:57.758Z,39.47
2016-09-18T12:14:57.786Z,39.16
2016-09-18T12:15:57.814Z,39.18
2016-09-18T12:16:57.840Z,39.18
2016-09-18T12:17:57.868Z,39.37
2016-09-18T12:18:57.896Z,39.26
2016-09-18T12:19:57.926Z,39.08
2016-09-18T12:20:57.958Z,39.08
2016-09-18T12:21:57.979Z,39.08
2016-09-18T12:22:58.012Z,39.18
2016-09-18T12:23:58.038Z,39.08
2016-09-18T12:24:58.063Z,38.99
2016-09-18T12:25:58.092Z,38.79
2016-09-18T12:26:58.119Z,38.79
2016-09-18T12:27:58.154Z,39.08
2016-09-18T12:28:58.179Z,38.79
2016-09-18T12:29:58.202Z,38.79
2016-09-18T12:30:58.231Z,38.79
2016-09-18T12:31:58.257Z,38.4
2016-09-18T12:32:58.288Z,38.6
2016-09-18T12:33:58.314Z,38.21
2016-09-18T12:34:58.340Z,38.79
2016-09-18T12:35:58.369Z,38.89
2016-09-18T12:36:58.396Z,38.91
2016-09-18T12:37:58.425Z,38.52
2016-09-18T12:38:58.453Z,38.52
2016-09-18T12:39:58.595Z,38.23
2016-09-18T12:40:58.509Z,38.02
2016-09-18T12:41:58.536Z,38.23
2016-09-18T12:42:58.565Z,37.74
2016-09-18T12:43:58.593Z,37.65
2016-09-18T12:44:58.621Z,37.45
2016-09-18T12:45:58.757Z,38.13
2016-09-18T12:46:58.787Z,38.21
2016-09-18T12:47:58.706Z,37.74
2016-09-18T12:48:58.733Z,38.12
2016-09-18T12:49:58.759Z,38.23
2016-09-18T12:50:58.790Z,38.13
2016-09-18T12:51:58.816Z,38.23
2016-09-18T12:52:58.847Z,38.13
2016-09-18T12:53:58.871Z,38.23
2016-09-18T12:54:58.903Z,37.65
2016-09-18T12:55:58.941Z,38.32
2016-09-18T12:56:58.956Z,38.32
2016-09-18T12:57:58.986Z,37.94